Airfield :
LOGIN :

Register | Disclaimer

   EN    FR    IT 

 










Legend :    VFR   Marginal VFR   IFR   Intensive IFR   Very Intensive IFR
Visi :
Ceiling :
>= 8 km
>= 3000ft
5 to 8 km
1000 to 3000 ft
1500m to 5 km
500 to 1000 ft
800 to 1500m
200 to 500 ft
< 800m
< 200 ft
Symbols :   Thunderstorms  Fog  Heavy snow  Heavy precipitations  Wind > 20 kt
SIGMETs :     Misc.  Thunderstorms  Icing  Turbulence  Mountain Waves  Volcanic Ashes







- Airport Elevation : 66 ft
- IATA code : AOK


LGKP - Karpathos

CURRENT METAR :
  • 161450Z 31019KT 9999 FEW018 22/17 Q1016

EXPIRED METARs :
  • 161420Z 32020KT 9999 FEW018 22/17 Q1016
  • 161350Z 31018KT 9999 SCT018 23/17 Q1016
  • 161320Z 31018KT 9999 SCT018 23/16 Q1016
  • 161250Z 31018KT 9999 SCT018 23/17 Q1016
  • 161220Z 31019KT 9999 SCT018 24/16 Q1016

TAF TAF LGKP
Valid from the 16 at 15:00 until the 17 at 00:00 UTC


161400Z 1615/1624 32018KT 9999 SCT020
No reported NOTAMs for that airfield.



MET'MAP, your aeronautical weather chart ! - Copyright ORBIFLY December 2007 - Disclaimer

ORBIFLY MET'MAP TEAM :

Programming & Development : Alexandra Zaïnal
Concept & Development : Baudouin d'Aumeries
Co-Development & Prog : Marc-Olivier Méhu
Technical & hardware support : Manuel Goepfert

Contact : metmap@orbifly.com




SOURCES & CREDITS :

   NOAA